Pays
Station

 

Conditions  météo  pour  Crotone  -  Italie    Italie

  
17 °C
    
 
 

METAR pour Crotone :

LIBC 211750Z 24005KT 9999 SCT030 17/14 Q1016

 

Voici le bulletin pour Crotone - Italie.
 
Le bulletin a été fait il y a 5 heures et 28 minutes, à 17:50 UTC .
Le vent soufflait à la vitesse de 2.6 mètres par seconde de Ouest/Sud-ouest (240°).
 
La température était de 17 °C, avec un point de rosée à 14 °C.
La pression atmosphérique était de 1016 hPa.
L'humidité relative était de 82.5%.
 
Il y avait 3 à 4/8ème de nébulosité à une hauteur de 914 mètres.
 
La visibilité globale était de supérieure à 10 kilomètres.
 

 
 
 

Pays :   A   B   C   D   E   F   G   H   I   J   K   L   M   N   O   P   Q   R   S   T   U   V   W   Y   Z

 

Partenaires :  Info Météo avec Met'info
Météo Marine avec MeteoMarine.net
Infos Site  |  Infos Légales  |  Crédits  |  Confidentialité
Contactez-nous  |  Ajouter aux favoris
© 2013-2018 METAR - Tous droits réservés